Terra Rica, Brazil
Current Conditions -  °F | °C
As of 10:00 PM on Saturday 25 Oct 2014 (Local Time) from SBMG Reporting Station
Clear Clear  
Wind Chill: 72°   Ceiling: Unl
Heat Index: 72°   Visibility: 6mi
Dew Point: 64°   Wind: 8mph
Humidity: 78%   Direction: 10°N
Pressure: 29.91"   Gusts: NA
Location:  22.72°S, 52.62°W
Report Text: SBMG 260000Z 01007KT CAVOK 22/18 Q1013
Loading
Personal Weather Stations






























Interactive Weather Map
Tropical Storm Tracking
New forecast layout! Learn more

10-Day Weather Forecast

Advertisements
Track Severe Weather on mobile